Time;durP1;ratioP1;P1;durP2;ratioP2;P2;SDS_P1;SDS_P2;PMS_P1;PMS_P2;Temp;Humidity;BMP_temperature;BMP_pressure;BME280_temperature;BME280_humidity;BME280_pressure;Samples;Min_cycle;Max_cycle;Signal;HPM_P1;HPM_P2
2020/12/06 00:02:08;;;;;;;43.83;32.17;;;2.10;99.90;;;;;;4946207;28;20981;-74
2020/12/06 00:04:34;;;;;;;38.40;30.57;;;2.10;99.90;;;;;;4941193;29;20475;-74
2020/12/06 00:07:02;;;;;;;41.83;33.60;;;2.10;99.90;;;;;;4947975;28;20474;-76
2020/12/06 00:09:28;;;;;;;42.97;33.20;;;2.10;99.90;;;;;;4947708;29;20465;-75
2020/12/06 00:11:58;;;;;;;34.93;31.17;;;2.10;99.90;;;;;;4940923;29;20558;-75
2020/12/06 00:14:25;;;;;;;41.20;32.23;;;2.10;99.90;;;;;;4943762;29;20471;-74
2020/12/06 00:16:52;;;;;;;38.10;32.60;;;2.10;99.90;;;;;;4945571;28;20484;-76
2020/12/06 00:19:18;;;;;;;37.93;32.53;;;2.00;99.90;;;;;;4943406;29;20478;-75
2020/12/06 00:21:45;;;;;;;39.70;32.40;;;2.00;99.90;;;;;;4941306;29;20495;-75
2020/12/06 00:24:12;;;;;;;35.30;31.17;;;2.00;99.90;;;;;;4950202;29;20988;-73
2020/12/06 00:26:39;;;;;;;37.73;32.20;;;2.00;99.90;;;;;;4946643;28;20495;-76
2020/12/06 00:29:06;;;;;;;41.60;34.00;;;2.00;99.90;;;;;;4946274;29;20479;-75
2020/12/06 00:31:32;;;;;;;38.17;32.93;;;1.90;99.90;;;;;;4947287;28;20477;-76
2020/12/06 00:33:59;;;;;;;40.17;32.20;;;1.90;99.90;;;;;;4946086;29;20522;-76
2020/12/06 00:36:25;;;;;;;39.27;33.53;;;1.90;99.90;;;;;;4942397;28;20479;-76
2020/12/06 00:38:52;;;;;;;42.23;34.07;;;1.90;99.90;;;;;;4940783;29;20474;-75
2020/12/06 00:41:19;;;;;;;43.80;32.90;;;1.90;99.90;;;;;;4943493;28;20867;-76
2020/12/06 00:43:46;;;;;;;39.60;34.50;;;2.00;99.90;;;;;;4934987;29;20496;-75
2020/12/06 00:46:20;;;;;;;45.23;34.13;;;2.00;99.90;;;;;;4922434;29;20479;-73
2020/12/06 00:48:47;;;;;;;39.87;33.50;;;2.00;99.90;;;;;;4922310;29;20478;-75
2020/12/06 00:51:14;;;;;;;51.33;32.90;;;1.90;99.90;;;;;;4929657;29;20472;-77
2020/12/06 00:53:43;;;;;;;41.77;32.30;;;1.90;99.90;;;;;;4931296;29;20468;-76
2020/12/06 00:56:16;;;;;;;40.57;33.27;;;1.80;99.90;;;;;;4928178;29;20499;-76
2020/12/06 00:58:46;;;;;;;42.90;35.13;;;1.80;99.90;;;;;;4927923;29;20463;-74
2020/12/06 01:01:14;;;;;;;36.40;31.60;;;1.80;99.90;;;;;;4932076;29;20488;-75
2020/12/06 01:03:41;;;;;;;41.17;32.87;;;1.80;99.90;;;;;;4929561;29;20536;-77
2020/12/06 01:06:08;;;;;;;42.67;36.20;;;1.80;99.90;;;;;;4930522;29;20936;-76
2020/12/06 01:08:34;;;;;;;40.77;32.93;;;1.90;99.90;;;;;;4934398;29;20496;-74
2020/12/06 01:11:01;;;;;;;46.90;35.40;;;1.90;99.90;;;;;;4933217;29;20483;-75
2020/12/06 01:13:27;;;;;;;43.93;36.07;;;1.80;99.90;;;;;;4925898;29;20489;-75
2020/12/06 01:15:54;;;;;;;43.07;34.47;;;1.80;99.90;;;;;;4929752;29;20470;-75
2020/12/06 01:18:21;;;;;;;43.70;34.77;;;1.80;99.90;;;;;;4930161;29;20813;-72
2020/12/06 01:20:47;;;;;;;41.07;35.00;;;1.80;99.90;;;;;;4923735;29;20543;-75
2020/12/06 01:23:13;;;;;;;44.90;34.50;;;1.70;99.90;;;;;;4922920;29;20480;-74
2020/12/06 01:25:40;;;;;;;40.80;33.70;;;1.80;99.90;;;;;;4935148;29;20490;-76
2020/12/06 01:28:06;;;;;;;40.80;33.87;;;1.70;99.90;;;;;;4932914;29;20461;-74
2020/12/06 01:30:33;;;;;;;42.60;34.27;;;1.70;99.90;;;;;;4931993;29;20467;-75
2020/12/06 01:33:00;;;;;;;42.93;34.17;;;1.70;99.90;;;;;;4926931;29;20472;-75
2020/12/06 01:35:27;;;;;;;41.20;33.77;;;1.80;99.90;;;;;;4925282;29;20468;-76
2020/12/06 01:37:53;;;;;;;42.90;35.93;;;1.80;99.90;;;;;;4922732;29;20972;-75
2020/12/06 01:40:19;;;;;;;43.33;34.87;;;1.80;99.90;;;;;;4924827;29;20497;-76
2020/12/06 01:42:46;;;;;;;43.33;34.87;;;1.80;99.90;;;;;;4939850;29;20494;-75
2020/12/06 01:45:13;;;;;;;39.40;32.97;;;1.80;99.90;;;;;;4941969;28;20875;-76
2020/12/06 01:47:42;;;;;;;42.17;33.80;;;1.70;99.90;;;;;;4942553;28;20477;-75
2020/12/06 01:50:10;;;;;;;42.33;33.70;;;1.70;99.90;;;;;;4940130;28;20972;-77
2020/12/06 01:52:39;;;;;;;42.73;33.50;;;1.70;99.90;;;;;;4946448;29;20460;-76
2020/12/06 01:55:07;;;;;;;40.00;34.83;;;1.70;99.90;;;;;;4939552;29;20486;-76
2020/12/06 01:57:33;;;;;;;44.53;33.40;;;1.70;99.90;;;;;;4943063;29;20467;-77
2020/12/06 02:00:00;;;;;;;43.03;35.30;;;1.70;99.90;;;;;;4941875;29;20482;-74
2020/12/06 02:02:26;;;;;;;37.50;32.50;;;1.60;99.90;;;;;;4943453;28;20494;-74
2020/12/06 02:04:53;;;;;;;43.00;33.67;;;1.50;99.90;;;;;;4943113;29;20461;-74
2020/12/06 02:07:22;;;;;;;39.50;34.10;;;1.40;99.90;;;;;;4940378;29;20495;-76
2020/12/06 02:09:48;;;;;;;40.90;34.67;;;1.40;99.90;;;;;;4944896;29;20469;-75
2020/12/06 02:12:15;;;;;;;36.57;32.73;;;1.50;99.90;;;;;;4942010;29;20471;-76
2020/12/06 02:14:42;;;;;;;36.07;32.13;;;1.50;99.90;;;;;;4943019;28;20463;-74
2020/12/06 02:17:08;;;;;;;39.00;34.37;;;1.40;99.90;;;;;;4942115;28;20476;-74
2020/12/06 02:19:36;;;;;;;40.07;33.90;;;1.40;99.90;;;;;;4944080;29;20483;-75
2020/12/06 02:22:03;;;;;;;43.00;34.17;;;1.30;99.90;;;;;;4945839;29;20503;-76
2020/12/06 02:24:29;;;;;;;36.00;31.83;;;1.40;99.90;;;;;;4939381;29;20472;-76
2020/12/06 02:26:56;;;;;;;43.77;34.70;;;1.30;99.90;;;;;;4944328;29;20498;-75
2020/12/06 02:29:23;;;;;;;39.00;34.67;;;1.30;99.90;;;;;;4942345;29;20493;-74
2020/12/06 02:31:50;;;;;;;42.73;34.77;;;1.30;99.90;;;;;;4947577;28;20473;-75
2020/12/06 02:34:16;;;;;;;40.27;33.20;;;1.30;99.90;;;;;;4941774;29;20562;-75
2020/12/06 02:36:43;;;;;;;39.27;32.23;;;1.30;99.90;;;;;;4938601;29;20462;-77
2020/12/06 02:39:13;;;;;;;39.93;34.13;;;1.20;99.90;;;;;;4945407;28;20494;-76
2020/12/06 02:41:41;;;;;;;38.37;32.53;;;1.20;99.90;;;;;;4941849;29;20495;-77
2020/12/06 02:44:09;;;;;;;36.47;31.57;;;1.20;99.90;;;;;;4933070;28;20506;-76
2020/12/06 02:46:38;;;;;;;35.97;32.20;;;1.10;99.90;;;;;;4922378;29;20833;-74
2020/12/06 02:49:05;;;;;;;34.93;31.17;;;1.10;99.90;;;;;;4929702;29;20472;-76
2020/12/06 02:51:33;;;;;;;40.20;33.27;;;0.90;99.90;;;;;;4926099;29;20481;-77
2020/12/06 02:53:59;;;;;;;37.87;33.23;;;0.80;99.90;;;;;;4926152;29;20469;-75
2020/12/06 02:56:26;;;;;;;36.90;31.33;;;0.80;99.90;;;;;;4921186;29;20471;-75
2020/12/06 02:58:53;;;;;;;35.53;30.67;;;0.70;99.90;;;;;;4926489;29;21034;-74
2020/12/06 03:01:20;;;;;;;37.60;31.90;;;0.70;99.90;;;;;;4942054;29;20488;-75
2020/12/06 03:03:47;;;;;;;34.90;30.40;;;0.70;99.90;;;;;;4929282;29;20482;-75
2020/12/06 03:06:13;;;;;;;36.40;31.43;;;0.70;99.90;;;;;;4923013;29;20473;-75
2020/12/06 03:08:40;;;;;;;40.40;33.50;;;0.70;99.90;;;;;;4927974;29;20462;-76
2020/12/06 03:11:07;;;;;;;40.47;32.90;;;0.80;99.90;;;;;;4936014;29;20473;-75
2020/12/06 03:13:35;;;;;;;36.80;32.40;;;0.80;99.90;;;;;;4937166;29;20452;-75
2020/12/06 03:16:02;;;;;;;38.13;31.30;;;0.90;99.90;;;;;;4929048;29;20482;-75
2020/12/06 03:18:28;;;;;;;41.63;34.10;;;0.90;99.90;;;;;;4922785;29;21006;-76
2020/12/06 03:20:55;;;;;;;36.20;31.40;;;0.90;99.90;;;;;;4929682;29;20499;-75
2020/12/06 03:23:21;;;;;;;36.90;32.47;;;0.90;99.90;;;;;;4921438;29;20824;-76
2020/12/06 03:25:48;;;;;;;32.87;29.47;;;0.90;99.90;;;;;;4922380;29;20503;-75
2020/12/06 03:28:14;;;;;;;35.13;31.33;;;0.80;99.90;;;;;;4938262;29;20456;-74
2020/12/06 03:30:41;;;;;;;41.73;34.50;;;0.80;99.90;;;;;;4931943;29;20481;-74
2020/12/06 03:33:07;;;;;;;39.93;32.67;;;0.90;99.90;;;;;;4925066;29;20459;-75
2020/12/06 03:35:34;;;;;;;40.53;34.13;;;1.00;99.90;;;;;;4927972;29;20466;-77
2020/12/06 03:38:00;;;;;;;38.73;34.00;;;1.00;99.90;;;;;;4932834;29;20872;-75
2020/12/06 03:40:27;;;;;;;45.70;32.57;;;1.00;99.90;;;;;;4939565;29;20502;-76
2020/12/06 03:42:55;;;;;;;35.03;31.27;;;1.00;99.90;;;;;;4935874;29;20841;-76
2020/12/06 03:45:22;;;;;;;40.37;32.20;;;1.00;99.90;;;;;;4944161;28;20475;-77
2020/12/06 03:47:54;;;;;;;39.37;32.83;;;1.10;99.90;;;;;;4947643;29;20477;-77
2020/12/06 03:50:21;;;;;;;39.40;32.77;;;1.10;99.90;;;;;;4948956;29;20549;-77
2020/12/06 03:52:47;;;;;;;38.83;33.07;;;1.10;99.90;;;;;;4945678;29;20462;-75
2020/12/06 03:55:13;;;;;;;36.73;31.87;;;1.10;99.90;;;;;;4944071;29;20463;-75
2020/12/06 03:57:40;;;;;;;38.53;31.60;;;1.20;99.90;;;;;;4944403;29;20510;-76
2020/12/06 04:00:07;;;;;;;37.20;31.30;;;1.20;99.90;;;;;;4944176;28;20483;-76
2020/12/06 04:02:34;;;;;;;43.77;33.60;;;1.30;99.90;;;;;;4946464;28;20502;-75
2020/12/06 04:05:01;;;;;;;39.00;32.13;;;1.20;99.90;;;;;;4950683;29;20476;-76
2020/12/06 04:07:28;;;;;;;35.40;31.53;;;1.20;99.90;;;;;;4950136;29;20554;-75
2020/12/06 04:09:55;;;;;;;35.30;31.40;;;1.20;99.90;;;;;;4943458;29;20986;-75
2020/12/06 04:12:21;;;;;;;39.40;32.53;;;1.20;99.90;;;;;;4947255;28;20456;-76
2020/12/06 04:14:48;;;;;;;35.30;30.17;;;1.20;99.90;;;;;;4948028;29;20480;-76
2020/12/06 04:17:14;;;;;;;34.67;30.97;;;1.10;99.90;;;;;;4951591;28;20471;-77
2020/12/06 04:19:41;;;;;;;38.50;33.60;;;1.10;99.90;;;;;;4948063;29;20471;-75
2020/12/06 04:22:08;;;;;;;37.43;32.50;;;1.10;99.90;;;;;;4945657;29;20494;-75
2020/12/06 04:24:35;;;;;;;32.90;29.60;;;1.10;99.90;;;;;;4943510;29;20486;-77
2020/12/06 04:27:01;;;;;;;36.77;32.73;;;1.00;99.90;;;;;;4946621;28;21113;-77
2020/12/06 04:29:31;;;;;;;36.63;31.53;;;1.00;99.90;;;;;;4945255;29;20467;-74
2020/12/06 04:31:57;;;;;;;35.33;31.03;;;1.00;99.90;;;;;;4953515;28;20467;-76
2020/12/06 04:34:24;;;;;;;38.80;31.20;;;1.10;99.90;;;;;;4944213;29;20471;-75
2020/12/06 04:36:51;;;;;;;38.17;32.17;;;1.10;99.90;;;;;;4944358;28;20502;-75
2020/12/06 04:39:19;;;;;;;36.40;30.93;;;1.10;99.90;;;;;;4938631;29;20499;-76
2020/12/06 04:41:46;;;;;;;35.33;30.93;;;1.10;99.90;;;;;;4943673;29;20497;-76
2020/12/06 04:44:12;;;;;;;35.47;31.73;;;1.20;99.90;;;;;;4943764;29;20575;-76
2020/12/06 04:46:40;;;;;;;36.50;32.50;;;1.20;99.90;;;;;;4946571;28;20463;-77
2020/12/06 04:49:25;;;;;;;36.90;32.90;;;1.20;99.90;;;;;;4943880;29;20478;-74
2020/12/06 04:51:56;;;;;;;38.87;32.53;;;1.20;99.90;;;;;;4948152;28;20470;-76
2020/12/06 04:54:32;;;;;;;34.83;31.17;;;1.10;99.90;;;;;;4943098;29;20465;-76
2020/12/06 04:57:04;;;;;;;35.20;31.60;;;1.10;99.90;;;;;;4941161;29;20461;-75
2020/12/06 04:59:32;;;;;;;41.60;33.00;;;1.00;99.90;;;;;;4947618;28;20493;-75
2020/12/06 05:02:04;;;;;;;37.13;33.10;;;1.00;99.90;;;;;;4944095;28;20836;-77
2020/12/06 05:04:34;;;;;;;35.87;32.00;;;1.10;99.90;;;;;;4939398;29;20462;-76
2020/12/06 05:07:03;;;;;;;34.60;30.87;;;1.20;99.90;;;;;;4940095;29;20560;-76
2020/12/06 05:09:36;;;;;;;37.60;30.23;;;1.10;99.90;;;;;;4939742;29;20471;-76
2020/12/06 05:12:05;;;;;;;36.00;32.13;;;1.10;99.90;;;;;;4943179;29;20460;-76
2020/12/06 05:14:32;;;;;;;38.23;31.40;;;1.10;99.90;;;;;;4941004;29;20466;-75
2020/12/06 05:16:58;;;;;;;35.87;31.27;;;1.10;99.90;;;;;;4948950;28;20485;-74
2020/12/06 05:19:26;;;;;;;40.93;31.40;;;1.00;99.90;;;;;;4943422;29;20502;-75
2020/12/06 05:21:53;;;;;;;34.07;30.47;;;1.00;99.90;;;;;;4942684;29;20493;-74
2020/12/06 05:24:20;;;;;;;36.40;30.90;;;1.00;99.90;;;;;;4941603;28;20467;-74
2020/12/06 05:26:49;;;;;;;36.73;30.20;;;1.00;99.90;;;;;;4946211;29;21063;-75
2020/12/06 05:29:15;;;;;;;33.30;29.80;;;1.00;99.90;;;;;;4938716;29;21059;-74
2020/12/06 05:31:41;;;;;;;36.97;31.20;;;1.20;99.90;;;;;;4949808;28;20467;-76
2020/12/06 05:34:08;;;;;;;37.37;30.80;;;1.30;99.90;;;;;;4944535;29;20476;-74
2020/12/06 05:36:34;;;;;;;37.50;32.00;;;1.30;99.90;;;;;;4944427;29;20534;-74
2020/12/06 05:39:00;;;;;;;35.00;30.63;;;1.40;99.90;;;;;;4945830;29;20483;-74
2020/12/06 05:41:27;;;;;;;39.27;34.83;;;1.50;99.90;;;;;;4942217;28;20511;-76
2020/12/06 05:43:54;;;;;;;37.93;32.03;;;1.50;99.90;;;;;;4945957;29;20498;-74
2020/12/06 05:46:20;;;;;;;34.50;31.03;;;1.40;99.90;;;;;;4947067;28;20467;-74
2020/12/06 05:48:47;;;;;;;38.40;33.90;;;1.40;99.90;;;;;;4942217;28;20479;-78
2020/12/06 05:51:15;;;;;;;34.87;31.20;;;1.50;99.90;;;;;;4939717;29;20972;-74
2020/12/06 05:53:42;;;;;;;33.53;29.90;;;1.50;99.90;;;;;;4947115;29;20467;-76
2020/12/06 05:56:13;;;;;;;37.73;33.40;;;1.60;99.90;;;;;;4947450;29;21025;-76
2020/12/06 05:58:43;;;;;;;41.73;35.00;;;1.60;99.90;;;;;;4946560;28;20533;-76
2020/12/06 06:01:10;;;;;;;37.17;33.23;;;1.70;99.90;;;;;;4943012;28;20496;-77
2020/12/06 06:03:38;;;;;;;35.63;31.90;;;1.80;99.90;;;;;;4945098;28;20465;-74
2020/12/06 06:06:05;;;;;;;34.80;31.27;;;1.90;99.90;;;;;;4946477;29;20474;-77
2020/12/06 06:08:36;;;;;;;32.77;29.27;;;1.80;99.90;;;;;;4945729;29;20525;-77
2020/12/06 06:11:30;;;;;;;37.10;33.10;;;1.80;99.90;;;;;;4945813;29;20475;-75
2020/12/06 06:14:00;;;;;;;40.23;34.57;;;1.80;99.90;;;;;;4926183;29;20468;-75
2020/12/06 06:16:29;;;;;;;38.87;33.30;;;1.80;99.90;;;;;;4941422;28;20472;-76
2020/12/06 06:18:58;;;;;;;38.43;33.10;;;1.80;99.90;;;;;;4939011;29;20499;-76
2020/12/06 06:21:28;;;;;;;42.67;34.50;;;1.70;99.90;;;;;;4943880;28;20496;-77
2020/12/06 06:23:58;;;;;;;38.30;32.23;;;1.80;99.90;;;;;;4944307;29;20700;-74
2020/12/06 06:26:27;;;;;;;34.93;31.30;;;1.80;99.90;;;;;;4941261;29;20496;-75
2020/12/06 06:28:54;;;;;;;35.40;31.60;;;1.90;99.90;;;;;;4938759;29;20835;-77
2020/12/06 06:31:21;;;;;;;36.30;31.83;;;1.90;99.90;;;;;;4945268;28;20474;-75
2020/12/06 06:33:50;;;;;;;40.17;32.33;;;2.00;99.90;;;;;;4942394;29;20474;-76
2020/12/06 06:36:22;;;;;;;36.97;33.00;;;1.90;99.90;;;;;;4950639;28;20848;-75
2020/12/06 06:38:50;;;;;;;33.83;30.50;;;1.90;99.90;;;;;;4945318;29;21049;-77
2020/12/06 06:41:17;;;;;;;35.53;31.73;;;2.00;99.90;;;;;;4944763;29;20798;-76
2020/12/06 06:43:44;;;;;;;37.40;33.00;;;2.00;99.90;;;;;;4948058;29;20491;-74
2020/12/06 06:46:15;;;;;;;33.23;29.80;;;2.10;99.90;;;;;;4947340;28;20472;-75
2020/12/06 06:48:45;;;;;;;37.83;31.93;;;2.10;99.90;;;;;;4946824;28;20476;-75
2020/12/06 06:51:18;;;;;;;38.37;33.37;;;2.10;99.90;;;;;;4948506;29;20470;-76
2020/12/06 06:53:45;;;;;;;36.90;32.53;;;2.10;99.90;;;;;;4952967;28;20969;-74
2020/12/06 06:56:16;;;;;;;37.57;32.77;;;2.20;99.90;;;;;;4943331;29;20487;-75
2020/12/06 06:58:46;;;;;;;40.33;32.93;;;2.20;99.90;;;;;;4948632;29;20469;-75
2020/12/06 07:01:17;;;;;;;34.27;30.57;;;2.20;99.90;;;;;;4943317;28;20519;-76
2020/12/06 07:03:46;;;;;;;35.23;31.53;;;2.20;99.90;;;;;;4938340;29;20472;-75
2020/12/06 07:06:47;;;;;;;39.10;31.03;;;2.10;99.90;;;;;;4943723;29;20527;-76
2020/12/06 07:09:14;;;;;;;34.47;30.77;;;2.10;99.90;;;;;;4954016;29;20474;-76
2020/12/06 07:11:41;;;;;;;35.93;31.80;;;2.10;99.90;;;;;;4946294;29;21025;-75
2020/12/06 07:14:08;;;;;;;33.00;29.50;;;2.00;99.90;;;;;;4945395;29;20475;-74
2020/12/06 07:16:35;;;;;;;35.47;29.33;;;2.00;99.90;;;;;;4950961;28;20460;-77
2020/12/06 07:19:01;;;;;;;35.67;30.40;;;2.00;99.90;;;;;;4947937;29;20502;-75
2020/12/06 07:21:33;;;;;;;35.30;31.60;;;2.10;99.90;;;;;;4947225;29;20503;-77
2020/12/06 07:24:00;;;;;;;39.37;32.33;;;2.10;99.90;;;;;;4944584;29;20467;-76
2020/12/06 07:26:27;;;;;;;35.37;31.47;;;2.10;99.90;;;;;;4944045;29;20518;-75
2020/12/06 07:28:53;;;;;;;38.20;33.50;;;2.20;99.90;;;;;;4944853;29;20479;-76
2020/12/06 07:31:20;;;;;;;38.13;29.70;;;2.20;99.90;;;;;;4949844;28;20475;-75
2020/12/06 07:33:46;;;;;;;33.03;29.50;;;2.30;99.90;;;;;;4947450;29;21238;-75
2020/12/06 07:36:13;;;;;;;36.20;31.67;;;2.30;99.90;;;;;;4945781;29;20554;-77
2020/12/06 07:38:39;;;;;;;37.33;30.30;;;2.30;99.90;;;;;;4942888;29;20975;-75
2020/12/06 07:41:07;;;;;;;38.47;31.57;;;2.20;99.90;;;;;;4943815;29;21022;-76
2020/12/06 07:43:33;;;;;;;40.50;31.40;;;2.30;99.90;;;;;;4944220;29;21056;-75
2020/12/06 07:46:15;;;;;;;35.33;31.63;;;2.30;99.90;;;;;;4947869;28;20473;-75
2020/12/06 07:48:42;;;;;;;38.40;31.43;;;2.30;99.90;;;;;;4945050;29;20486;-75
2020/12/06 07:51:09;;;;;;;34.43;29.53;;;2.30;99.90;;;;;;4948338;28;20472;-75
2020/12/06 07:53:49;;;;;;;37.30;31.40;;;2.30;99.90;;;;;;4949147;29;20474;-75
2020/12/06 07:56:22;;;;;;;34.77;31.03;;;2.30;99.90;;;;;;4946309;29;21064;-73
2020/12/06 07:59:17;;;;;;;32.93;29.40;;;2.30;99.90;;;;;;4943738;29;20463;-75
2020/12/06 08:01:45;;;;;;;33.47;29.97;;;2.30;99.90;;;;;;4943148;28;20496;-73
2020/12/06 08:04:15;;;;;;;32.67;28.23;;;2.30;99.90;;;;;;4946033;28;20495;-75
2020/12/06 08:06:45;;;;;;;36.40;29.80;;;2.30;99.90;;;;;;4944020;29;20472;-73
2020/12/06 08:09:15;;;;;;;34.37;29.67;;;2.40;99.90;;;;;;4944362;29;20462;-74
2020/12/06 08:11:46;;;;;;;36.13;32.43;;;2.40;99.90;;;;;;4949995;29;20471;-73
2020/12/06 08:14:18;;;;;;;33.73;30.33;;;2.40;99.90;;;;;;4946814;29;20482;-72
2020/12/06 08:16:56;;;;;;;34.97;31.20;;;2.40;99.90;;;;;;4951052;28;20456;-74
2020/12/06 08:19:24;;;;;;;36.30;30.70;;;2.50;99.90;;;;;;4940487;29;20460;-73
2020/12/06 08:21:51;;;;;;;35.37;31.53;;;2.50;99.90;;;;;;4939854;29;20496;-73
2020/12/06 08:24:22;;;;;;;35.73;31.93;;;2.60;99.90;;;;;;4947885;29;20535;-74
2020/12/06 08:26:50;;;;;;;33.93;30.30;;;2.70;99.90;;;;;;4945372;29;20542;-74
2020/12/06 08:29:18;;;;;;;36.97;32.77;;;2.80;99.90;;;;;;4942541;29;20467;-75
2020/12/06 08:31:46;;;;;;;36.23;32.17;;;2.90;99.90;;;;;;4941316;28;20565;-75
2020/12/06 08:34:14;;;;;;;36.03;31.17;;;3.00;99.90;;;;;;4944670;29;20471;-74
2020/12/06 08:36:40;;;;;;;31.77;28.70;;;3.10;99.90;;;;;;4948859;29;20496;-73
2020/12/06 08:39:18;;;;;;;34.93;31.43;;;3.10;99.90;;;;;;4948652;28;20600;-73
2020/12/06 08:41:45;;;;;;;35.03;31.37;;;3.00;99.90;;;;;;4948005;29;20499;-73
2020/12/06 08:44:12;;;;;;;34.03;29.80;;;3.00;99.90;;;;;;4942847;29;20527;-74
2020/12/06 08:46:49;;;;;;;32.50;29.00;;;2.90;99.90;;;;;;4946345;28;20477;-73
2020/12/06 08:49:16;;;;;;;35.37;30.30;;;3.00;99.90;;;;;;4945943;29;20475;-74
2020/12/06 08:51:48;;;;;;;32.20;28.90;;;3.00;99.90;;;;;;4944250;29;20986;-73
2020/12/06 08:54:15;;;;;;;31.50;28.13;;;3.00;99.90;;;;;;4935580;29;20473;-73
2020/12/06 08:56:42;;;;;;;32.23;28.67;;;3.00;99.90;;;;;;4941763;29;20468;-72
2020/12/06 08:59:11;;;;;;;34.27;29.20;;;2.90;99.90;;;;;;4946689;28;20471;-76
2020/12/06 09:01:49;;;;;;;33.70;30.00;;;2.90;99.90;;;;;;4944635;28;20498;-76
2020/12/06 09:04:15;;;;;;;38.83;31.10;;;2.90;99.90;;;;;;4946474;29;20461;-75
2020/12/06 09:06:42;;;;;;;34.90;31.20;;;3.00;99.90;;;;;;4943634;29;20461;-77
2020/12/06 09:09:09;;;;;;;32.50;29.00;;;3.10;99.90;;;;;;4939823;29;20464;-76
2020/12/06 09:11:35;;;;;;;32.77;29.37;;;3.10;99.90;;;;;;4945512;28;20487;-77
2020/12/06 09:14:03;;;;;;;34.77;31.17;;;3.20;99.90;;;;;;4946513;29;20471;-76
2020/12/06 09:16:30;;;;;;;33.70;29.30;;;3.30;99.90;;;;;;4948281;28;20494;-76
2020/12/06 09:18:57;;;;;;;32.87;29.43;;;3.40;99.90;;;;;;4950172;29;20467;-75
2020/12/06 09:21:23;;;;;;;34.27;28.87;;;3.50;99.90;;;;;;4948801;28;20607;-74
2020/12/06 09:23:51;;;;;;;33.80;29.60;;;3.60;99.90;;;;;;4942639;29;20468;-75
2020/12/06 09:26:17;;;;;;;35.20;29.03;;;3.70;99.90;;;;;;4938419;28;20517;-76
2020/12/06 09:28:44;;;;;;;36.47;31.03;;;3.70;99.90;;;;;;4947128;29;20476;-74
2020/12/06 09:31:10;;;;;;;34.10;30.60;;;3.80;99.90;;;;;;4945867;28;20469;-75
2020/12/06 09:33:37;;;;;;;40.80;29.97;;;4.00;99.90;;;;;;4940317;29;20471;-75
2020/12/06 09:36:06;;;;;;;34.47;30.87;;;4.00;99.90;;;;;;4942806;28;20500;-76
2020/12/06 09:38:33;;;;;;;34.90;30.73;;;4.10;99.90;;;;;;4946068;29;21145;-75
2020/12/06 09:40:59;;;;;;;39.10;30.73;;;4.10;99.90;;;;;;4943152;29;20476;-76
2020/12/06 09:43:25;;;;;;;36.17;30.60;;;4.20;99.90;;;;;;4944520;28;20675;-76
2020/12/06 09:45:52;;;;;;;34.87;31.07;;;4.20;99.90;;;;;;4951738;28;20554;-75
2020/12/06 09:48:20;;;;;;;35.40;30.20;;;4.30;99.90;;;;;;4942478;29;20464;-76
2020/12/06 09:50:46;;;;;;;33.77;29.57;;;4.30;99.90;;;;;;4941806;28;20471;-75
2020/12/06 09:53:14;;;;;;;34.20;30.63;;;4.40;99.90;;;;;;4947272;29;20542;-75
2020/12/06 09:55:42;;;;;;;39.77;32.90;;;4.30;99.90;;;;;;4942154;29;20473;-75
2020/12/06 09:58:08;;;;;;;35.00;31.20;;;4.30;99.90;;;;;;4944616;29;20486;-76
2020/12/06 10:00:36;;;;;;;39.23;32.97;;;4.40;99.90;;;;;;4940038;28;20483;-75
2020/12/06 10:03:03;;;;;;;43.80;35.10;;;4.30;99.90;;;;;;4939991;29;20505;-76
2020/12/06 10:05:29;;;;;;;36.87;31.43;;;4.40;99.90;;;;;;4946077;29;20450;-76
2020/12/06 10:07:55;;;;;;;46.20;37.23;;;4.50;99.90;;;;;;4938264;28;20465;-75
2020/12/06 10:10:24;;;;;;;41.10;35.33;;;4.50;99.90;;;;;;4938830;28;20462;-76
2020/12/06 10:12:51;;;;;;;49.47;37.63;;;4.70;99.90;;;;;;4934345;29;20581;-74
2020/12/06 10:15:17;;;;;;;41.43;33.63;;;4.80;99.90;;;;;;4942291;28;20472;-76
2020/12/06 10:17:43;;;;;;;58.10;39.80;;;5.10;99.90;;;;;;4946454;28;20472;-76
2020/12/06 10:20:10;;;;;;;44.93;34.70;;;5.30;99.90;;;;;;4942992;28;20462;-73
2020/12/06 10:22:36;;;;;;;38.40;32.90;;;5.60;99.90;;;;;;4941090;29;20858;-76
2020/12/06 10:25:03;;;;;;;39.40;33.33;;;5.80;99.90;;;;;;4942203;28;20527;-75
2020/12/06 10:27:31;;;;;;;34.17;30.87;;;6.00;99.90;;;;;;4941441;28;20499;-76
2020/12/06 10:29:57;;;;;;;35.30;31.57;;;6.20;99.90;;;;;;4940734;29;20475;-75
2020/12/06 10:32:23;;;;;;;38.57;32.40;;;6.20;99.90;;;;;;4943320;28;20477;-75
2020/12/06 10:34:50;;;;;;;36.30;32.57;;;6.30;99.90;;;;;;4940202;29;20460;-75
2020/12/06 10:37:16;;;;;;;35.67;32.00;;;6.40;99.90;;;;;;4943456;29;20471;-76
2020/12/06 10:39:45;;;;;;;36.70;32.03;;;6.50;99.90;;;;;;4941802;29;20477;-76
2020/12/06 10:42:11;;;;;;;37.70;31.57;;;6.70;99.90;;;;;;4942318;28;20507;-76
2020/12/06 10:44:39;;;;;;;34.43;30.83;;;6.70;99.90;;;;;;4938706;29;20481;-76
2020/12/06 10:47:05;;;;;;;33.13;29.50;;;6.70;99.90;;;;;;4944357;28;20464;-77
2020/12/06 10:49:32;;;;;;;33.53;29.97;;;6.80;99.90;;;;;;4940387;29;20477;-76
2020/12/06 10:52:02;;;;;;;34.03;30.47;;;6.80;99.90;;;;;;4942457;29;20484;-74
2020/12/06 10:54:28;;;;;;;30.27;27.13;;;6.70;99.90;;;;;;4940071;29;20476;-75
2020/12/06 10:56:54;;;;;;;31.20;28.00;;;6.80;99.90;;;;;;4940127;29;20858;-75
2020/12/06 10:59:21;;;;;;;31.50;28.20;;;6.80;99.90;;;;;;4942972;29;20463;-74
2020/12/06 11:01:48;;;;;;;31.43;28.07;;;6.80;99.90;;;;;;4940537;28;21075;-73
2020/12/06 11:04:15;;;;;;;29.60;26.60;;;6.80;99.90;;;;;;4935483;28;20929;-74
2020/12/06 11:06:41;;;;;;;27.70;24.70;;;6.80;99.90;;;;;;4935808;29;20468;-74
2020/12/06 11:09:07;;;;;;;27.00;24.40;;;6.70;99.90;;;;;;4932382;29;20595;-74
2020/12/06 11:11:34;;;;;;;27.83;25.10;;;6.60;99.90;;;;;;4946900;29;20475;-74
2020/12/06 11:14:00;;;;;;;31.00;25.83;;;6.60;99.90;;;;;;4936013;29;20453;-73
2020/12/06 11:16:27;;;;;;;28.47;25.47;;;6.60;99.90;;;;;;4939845;28;20469;-73
2020/12/06 11:18:54;;;;;;;29.53;26.53;;;6.60;99.90;;;;;;4941490;29;20465;-74
2020/12/06 11:21:21;;;;;;;27.67;25.17;;;6.60;99.90;;;;;;4942522;28;20527;-74
2020/12/06 11:23:48;;;;;;;29.27;26.33;;;6.60;99.90;;;;;;4946425;29;20853;-74
2020/12/06 11:26:16;;;;;;;28.30;24.97;;;6.40;99.90;;;;;;4944518;29;20513;-73
2020/12/06 11:28:45;;;;;;;26.37;23.67;;;6.50;99.90;;;;;;4945055;28;20470;-73
2020/12/06 11:31:12;;;;;;;29.30;26.33;;;6.60;99.90;;;;;;4938448;28;20525;-74
2020/12/06 11:33:39;;;;;;;28.70;25.70;;;6.50;99.90;;;;;;4945003;29;20475;-72
2020/12/06 11:36:08;;;;;;;30.80;26.40;;;6.50;99.90;;;;;;4946068;29;20464;-74
2020/12/06 11:38:34;;;;;;;30.23;27.17;;;6.50;99.90;;;;;;4937792;29;20477;-73
2020/12/06 11:41:00;;;;;;;29.90;26.97;;;6.40;99.90;;;;;;4943897;28;20471;-74
2020/12/06 11:43:26;;;;;;;31.10;27.90;;;6.50;99.90;;;;;;4943437;28;20496;-74
2020/12/06 11:45:53;;;;;;;31.20;28.00;;;6.40;99.90;;;;;;4945066;28;20918;-76
2020/12/06 11:48:19;;;;;;;28.33;25.30;;;6.50;99.90;;;;;;4942071;28;20473;-75
2020/12/06 11:50:47;;;;;;;29.17;24.37;;;6.60;99.90;;;;;;4945032;29;20473;-74
2020/12/06 11:53:14;;;;;;;28.90;26.10;;;6.60;99.90;;;;;;4940269;28;20495;-73
2020/12/06 11:55:41;;;;;;;28.67;25.67;;;6.60;99.90;;;;;;4940344;28;20948;-74
2020/12/06 11:58:07;;;;;;;31.10;27.83;;;6.40;99.90;;;;;;4942227;28;20468;-76
2020/12/06 12:00:34;;;;;;;33.13;29.73;;;6.40;99.90;;;;;;4946705;28;20492;-73
2020/12/06 12:03:00;;;;;;;34.13;30.53;;;6.30;99.90;;;;;;4945090;29;20509;-75
2020/12/06 12:05:26;;;;;;;36.67;30.30;;;6.10;99.90;;;;;;4944734;29;20971;-76
2020/12/06 12:07:53;;;;;;;35.10;31.50;;;6.20;99.90;;;;;;4944635;29;20472;-76
2020/12/06 12:10:22;;;;;;;35.47;30.50;;;6.10;99.90;;;;;;4942493;28;20492;-73
2020/12/06 12:12:48;;;;;;;36.83;32.90;;;6.00;99.90;;;;;;4942471;28;20465;-75
2020/12/06 12:15:14;;;;;;;36.90;33.00;;;5.90;99.90;;;;;;4945223;28;20473;-73
2020/12/06 12:17:42;;;;;;;39.00;34.80;;;5.80;99.90;;;;;;4934431;29;20473;-75
2020/12/06 12:20:09;;;;;;;38.40;34.23;;;5.80;99.90;;;;;;4937246;29;20465;-73
2020/12/06 12:22:36;;;;;;;38.10;34.10;;;5.80;99.90;;;;;;4941964;28;20557;-76
2020/12/06 12:25:02;;;;;;;40.50;34.30;;;5.70;99.90;;;;;;4935570;29;20481;-74
2020/12/06 12:27:29;;;;;;;43.20;35.20;;;5.70;99.90;;;;;;4941413;28;20488;-75
2020/12/06 12:29:55;;;;;;;41.40;34.73;;;5.70;99.90;;;;;;4945202;28;20896;-74
2020/12/06 12:32:23;;;;;;;37.93;33.93;;;5.70;99.90;;;;;;4940561;28;20479;-73
2020/12/06 12:34:49;;;;;;;43.40;34.47;;;5.70;99.90;;;;;;4945539;29;20469;-75
2020/12/06 12:37:16;;;;;;;39.97;35.40;;;5.60;99.90;;;;;;4940443;28;20469;-74
2020/12/06 12:39:43;;;;;;;41.50;37.07;;;5.60;99.90;;;;;;4940294;29;20475;-73